Track Борисов Сергей

Time Latitude Longitude Accuracy (66% radius in meters) Altitude (meters) Speed (km/hour) Bearing (degrees) Battery (%) GPS flag
12:21:07 57.002014 39.406441 2.5 189.39999389648 0.88999998569489 296.55944824219 1 1 delete
12:21:02 57.001983 39.406502 2.5 189.30000305176 1 312.890625 1 1 delete
12:20:47 57.001895 39.406693 5 186.60000610352 1.0099999904633 333.64379882812 1 1 delete
12:20:41 57.001837 39.406847 15.5 201.69999694824 0.81000000238419 310.79223632812 1 1 delete
12:10:35 56.996146 39.409410 1.5 190.69999694824 0.94999998807907 331.89147949219 4 1 delete
12:10:25 56.996073 39.409486 2 191.5 0.93999999761581 332.85827636719 4 1 delete
12:10:14 56.995977 39.409607 6.5 193.89999389648 0.83999997377396 335.15441894531 4 1 delete
12:10:08 56.995868 39.409718 12 200.80000305176 1.1799999475479 345.08056640625 4 1 delete
12:00:02 56.991509 39.409548 2 194.39999389648 1.0299999713898 0.2581787109375 4 1 delete
11:59:57 56.991460 39.409565 2 193.69999694824 0.97999995946884 337.56042480469 4 1 delete
11:59:52 56.991422 39.409629 2.5 192.69999694824 0.94999998807907 306.76574707031 4 1 delete
11:59:42 56.991354 39.409784 4 193.30000305176 0 0 4 1 delete
11:59:31 56.991252 39.409920 12.5 194.10000610352 0.83999997377396 302.95349121094 4 1 delete
11:49:25 56.989781 39.416338 2 174 0.96999996900558 255.03662109375 6 1 delete
11:49:20 56.989802 39.416423 2 174.39999389648 1.3999999761581 255.94848632812 6 1 delete
11:49:05 56.989832 39.416684 5 176.39999389648 1.0699999332428 252.22412109375 6 1 delete
11:48:59 56.989813 39.416864 10 190.5 1.5099999904633 308.35327148438 6 1 delete
11:38:54 56.990619 39.427924 1.5 172.10000610352 1.2599999904633 270.087890625 6 1 delete
11:38:19 56.990610 39.428187 1 171.39999389648 0 0 6 1 delete
11:38:14 56.990616 39.428205 1 171.60000610352 0.62000000476837 258.17321777344 6 1 delete
11:38:04 56.990616 39.428366 1 172.60000610352 1.3199999332428 265.83618164062 6 1 delete
11:37:54 56.990622 39.428554 1 172.80000305176 0.88999998569489 266.62719726562 6 1 delete
11:37:44 56.990630 39.428747 1 172.39999389648 1.1799999475479 267.16552734375 6 1 delete
11:37:34 56.990638 39.428962 1 174 1.2099999189377 268.36853027344 6 1 delete
11:37:24 56.990654 39.429207 1 174.19999694824 1.4699999094009 262.38098144531 6 1 delete
11:37:14 56.990673 39.429442 1 173.69999694824 1.3600000143051 262.00744628906 6 1 delete
11:37:04 56.990684 39.429624 1 173.19999694824 1.0499999523163 261.02416992188 7 1 delete
11:36:49 56.990711 39.429847 1 176 1.0499999523163 256.99768066406 7 1 delete
11:36:39 56.990728 39.430012 1 173.60000610352 1.0099999904633 263.56201171875 7 1 delete
11:36:29 56.990738 39.430192 1 175.10000610352 1.0799999237061 263.0126953125 7 1 delete
11:36:14 56.990754 39.430453 1 174.5 1.1799999475479 266.95678710938 7 1 delete
11:36:04 56.990757 39.430647 1 174.60000610352 1.2300000190735 264.29809570312 7 1 delete
11:35:54 56.990770 39.430868 1 174.39999389648 1.0499999523163 265.70983886719 7 1 delete
11:35:44 56.990757 39.431065 1 173.30000305176 1.1299999952316 271.64245605469 7 1 delete
11:35:34 56.990771 39.431241 1 171.89999389648 0.93000000715256 237.49694824219 7 1 delete
11:35:24 56.990892 39.431290 1 171.10000610352 1.0499999523163 173.81469726562 7 1 delete
11:35:14 56.990991 39.431263 1.5 169.10000610352 0.9899999499321 167.62939453125 7 1 delete
11:35:04 56.991082 39.431235 1.5 169.69999694824 0.89999997615814 174.01245117188 7 1 delete
11:34:54 56.991194 39.431196 1.5 170.39999389648 1.1599999666214 169.22790527344 7 1 delete
11:34:44 56.991309 39.431147 1.5 171.5 1.1200000047684 169.51904296875 7 1 delete
11:34:34 56.991431 39.431115 2 174.10000610352 1.0900000333786 177.47863769531 7 1 delete
11:34:18 56.991585 39.431151 8 167.80000305176 0.56999999284744 198.7646484375 7 1 delete
11:24:09 56.992691 39.438004 1.5 175.69999694824 0.77999997138977 335.92346191406 7 1 delete
11:23:59 56.992612 39.438118 1.5 172.69999694824 1.0900000333786 326.16760253906 7 1 delete
11:23:43 56.992570 39.438274 10.5 186.80000305176 2.4299998283386 332.42431640625 7 1 delete
11:13:34 56.990705 39.449482 1.5 181.39999389648 0.72999995946884 281.6455078125 8 1 delete
11:13:24 56.990688 39.449660 1.5 179.19999694824 0.97999995946884 271.845703125 8 1 delete
11:13:14 56.990682 39.449849 1.5 178.80000305176 1.0499999523163 268.51684570312 8 1 delete
11:12:59 56.990660 39.450083 2 176.39999389648 1.1699999570847 280.283203125 8 1 delete
11:12:49 56.990631 39.450332 2 175.5 1.0599999427795 285.52917480469 8 1 delete